Time,TemperatureF,DewpointF,PressureIn,WindDirection,WindDirectionDegrees,WindSpeedMPH,WindSpeedGustMPH,Humidity,HourlyPrecipIn,Conditions,Clouds,dailyrainin,SoftwareType,DateUTC
2018-02-21 00:03:00,48.3,46.4,30.27,South,188,0.0,2.0,93,0.00,,---,0.00,VWS V14.00,2018-02-21 05:03:00,
2018-02-21 00:08:00,48.3,46.4,30.27,South,189,2.0,2.0,93,0.00,,---,0.00,VWS V14.00,2018-02-21 05:08:00,
2018-02-21 00:13:00,48.2,46.3,30.27,South,189,2.0,3.0,93,0.00,,---,0.00,VWS V14.00,2018-02-21 05:13:00,
2018-02-21 00:18:00,48.2,46.3,30.26,South,180,2.0,4.0,93,0.00,,---,0.00,VWS V14.00,2018-02-21 05:18:00,
2018-02-21 00:23:00,48.1,46.2,30.26,South,174,4.0,5.0,93,0.00,,---,0.00,VWS V14.00,2018-02-21 05:23:00,
2018-02-21 00:28:00,48.1,46.5,30.26,SSE,167,1.0,5.0,94,0.00,,---,0.00,VWS V14.00,2018-02-21 05:28:00,
2018-02-21 00:33:00,48.2,46.6,30.26,SSW,205,4.0,4.0,94,0.00,,---,0.00,VWS V14.00,2018-02-21 05:33:00,
2018-02-21 00:38:00,48.3,46.7,30.26,South,170,1.0,4.0,94,0.00,,---,0.00,VWS V14.00,2018-02-21 05:38:00,
2018-02-21 00:43:00,48.4,46.8,30.26,SSW,203,1.0,4.0,94,0.00,,---,0.00,VWS V14.00,2018-02-21 05:43:00,
2018-02-21 00:48:00,48.4,46.8,30.26,South,190,0.0,4.0,94,0.00,,---,0.00,VWS V14.00,2018-02-21 05:48:00,
2018-02-21 00:53:00,48.4,46.8,30.26,SSW,196,2.0,4.0,94,0.00,,---,0.00,VWS V14.00,2018-02-21 05:53:00,
2018-02-21 00:58:00,48.3,46.7,30.26,SW,227,1.0,4.0,94,0.00,,---,0.00,VWS V14.00,2018-02-21 05:58:00,
2018-02-21 01:03:00,48.3,46.7,30.26,South,188,1.0,4.0,94,0.00,,---,0.00,VWS V14.00,2018-02-21 06:03:00,
2018-02-21 01:08:00,48.3,46.7,30.26,South,190,2.0,4.0,94,0.00,,---,0.00,VWS V14.00,2018-02-21 06:08:00,
2018-02-21 01:13:00,48.2,46.6,30.26,WSW,238,4.0,4.0,94,0.00,,---,0.00,VWS V14.00,2018-02-21 06:13:00,
2018-02-21 01:18:00,48.2,46.8,30.26,SSW,195,0.0,4.0,95,0.00,,---,0.00,VWS V14.00,2018-02-21 06:18:00,
2018-02-21 01:23:00,48.3,46.9,30.26,South,173,0.0,4.0,95,0.00,,---,0.00,VWS V14.00,2018-02-21 06:23:00,
2018-02-21 01:28:00,48.4,47.0,30.26,SSW,209,1.0,4.0,95,0.00,,---,0.00,VWS V14.00,2018-02-21 06:28:00,
2018-02-21 01:33:00,48.5,47.1,30.26,SSW,208,1.0,6.0,95,0.00,,---,0.00,VWS V14.00,2018-02-21 06:33:00,
2018-02-21 01:38:00,48.7,47.3,30.26,SW,221,2.0,6.0,95,0.00,,---,0.00,VWS V14.00,2018-02-21 06:38:00,
2018-02-21 01:43:00,49.0,47.9,30.25,SSW,196,0.0,6.0,96,0.00,,---,0.00,VWS V14.00,2018-02-21 06:43:00,
2018-02-21 01:48:00,49.2,48.1,30.25,South,180,1.0,6.0,96,0.00,,---,0.00,VWS V14.00,2018-02-21 06:48:00,
2018-02-21 01:53:00,49.5,48.4,30.25,SSW,200,1.0,6.0,96,0.00,,---,0.00,VWS V14.00,2018-02-21 06:53:00,
2018-02-21 01:58:00,49.8,48.7,30.25,South,190,0.0,6.0,96,0.00,,---,0.00,VWS V14.00,2018-02-21 06:58:00,
2018-02-21 02:03:00,50.1,49.0,30.25,South,175,2.0,5.0,96,0.00,,---,0.00,VWS V14.00,2018-02-21 07:03:00,
2018-02-21 02:08:00,50.6,49.8,30.25,WSW,238,1.0,5.0,97,0.00,,---,0.00,VWS V14.00,2018-02-21 07:08:00,
2018-02-21 02:13:00,51.0,49.9,30.25,SW,215,2.0,5.0,96,0.00,,---,0.00,VWS V14.00,2018-02-21 07:13:00,
2018-02-21 02:18:00,51.5,50.7,30.25,SSW,195,0.0,5.0,97,0.00,,---,0.00,VWS V14.00,2018-02-21 07:18:00,
2018-02-21 02:23:00,51.8,51.0,30.25,SW,230,2.0,5.0,97,0.00,,---,0.00,VWS V14.00,2018-02-21 07:23:00,
2018-02-21 02:28:00,52.1,51.3,30.25,SSW,209,0.0,5.0,97,0.00,,---,0.00,VWS V14.00,2018-02-21 07:28:00,
2018-02-21 02:33:00,52.3,51.5,30.25,SSW,202,0.0,3.0,97,0.00,,---,0.00,VWS V14.00,2018-02-21 07:33:00,
2018-02-21 02:38:00,52.5,51.7,30.25,SW,235,2.0,4.0,97,0.00,,---,0.00,VWS V14.00,2018-02-21 07:38:00,
2018-02-21 02:43:00,52.6,51.8,30.25,SW,218,2.0,4.0,97,0.00,,---,0.00,VWS V14.00,2018-02-21 07:43:00,
2018-02-21 02:48:00,52.8,52.0,30.24,SW,223,4.0,5.0,97,0.00,,---,0.00,VWS V14.00,2018-02-21 07:48:00,
2018-02-21 02:53:00,53.3,52.5,30.25,WSW,238,3.0,6.0,97,0.00,,---,0.00,VWS V14.00,2018-02-21 07:53:00,
2018-02-21 02:58:00,53.8,53.0,30.25,SW,234,3.0,6.0,97,0.00,,---,0.00,VWS V14.00,2018-02-21 07:58:00,
2018-02-21 03:03:00,54.1,53.3,30.25,SW,236,3.0,5.0,97,0.00,,---,0.00,VWS V14.00,2018-02-21 08:03:00,
2018-02-21 03:08:00,54.2,53.4,30.24,SSW,198,3.0,5.0,97,0.00,,---,0.00,VWS V14.00,2018-02-21 08:08:00,
2018-02-21 03:13:00,54.3,53.5,30.24,WSW,238,2.0,5.0,97,0.00,,---,0.00,VWS V14.00,2018-02-21 08:13:00,
2018-02-21 03:18:00,54.4,53.6,30.24,SW,235,3.0,7.0,97,0.00,,---,0.00,VWS V14.00,2018-02-21 08:18:00,
2018-02-21 03:23:00,54.6,53.8,30.24,WSW,239,3.0,7.0,97,0.00,,---,0.00,VWS V14.00,2018-02-21 08:23:00,
2018-02-21 03:28:00,54.8,54.0,30.24,SW,227,2.0,7.0,97,0.00,,---,0.00,VWS V14.00,2018-02-21 08:28:00,
2018-02-21 03:33:00,54.8,54.0,30.24,WSW,252,3.0,6.0,97,0.00,,---,0.00,VWS V14.00,2018-02-21 08:33:00,
2018-02-21 03:38:00,54.9,54.1,30.24,SW,221,2.0,6.0,97,0.00,,---,0.00,VWS V14.00,2018-02-21 08:38:00,
2018-02-21 03:43:00,54.8,54.0,30.24,West,263,2.0,6.0,97,0.00,,---,0.00,VWS V14.00,2018-02-21 08:43:00,
2018-02-21 03:48:00,54.9,54.1,30.24,SW,222,2.0,6.0,97,0.00,,---,0.00,VWS V14.00,2018-02-21 08:48:00,
2018-02-21 03:53:00,54.8,54.0,30.24,SSW,212,2.0,6.0,97,0.00,,---,0.00,VWS V14.00,2018-02-21 08:53:00,
2018-02-21 03:58:00,54.9,54.1,30.24,SSW,210,5.0,6.0,97,0.00,,---,0.00,VWS V14.00,2018-02-21 08:58:00,
2018-02-21 04:03:00,54.9,54.1,30.24,West,263,3.0,6.0,97,0.00,,---,0.00,VWS V14.00,2018-02-21 09:03:00,
2018-02-21 04:08:00,55.0,54.2,30.24,SW,234,3.0,8.0,97,0.00,,---,0.00,VWS V14.00,2018-02-21 09:08:00,
2018-02-21 04:13:00,55.0,54.2,30.24,SW,229,2.0,8.0,97,0.00,,---,0.00,VWS V14.00,2018-02-21 09:13:00,
2018-02-21 04:18:00,55.0,54.2,30.24,WSW,239,4.0,8.0,97,0.00,,---,0.00,VWS V14.00,2018-02-21 09:18:00,
2018-02-21 04:23:00,54.9,54.1,30.24,WSW,245,5.0,8.0,97,0.00,,---,0.00,VWS V14.00,2018-02-21 09:23:00,
2018-02-21 04:28:00,54.9,53.8,30.24,WSW,244,2.0,8.0,96,0.00,,---,0.00,VWS V14.00,2018-02-21 09:28:00,
2018-02-21 04:33:00,54.7,53.6,30.23,South,188,5.0,6.0,96,0.00,,---,0.00,VWS V14.00,2018-02-21 09:33:00,
2018-02-21 04:38:00,54.7,53.6,30.23,SW,227,5.0,7.0,96,0.00,,---,0.00,VWS V14.00,2018-02-21 09:38:00,
2018-02-21 04:43:00,54.8,53.7,30.23,SW,236,2.0,14.0,96,0.00,,---,0.00,VWS V14.00,2018-02-21 09:43:00,
2018-02-21 04:48:00,54.7,53.6,30.23,SSW,207,3.0,14.0,96,0.00,,---,0.00,VWS V14.00,2018-02-21 09:48:00,
2018-02-21 04:53:00,54.6,53.5,30.23,SW,222,2.0,14.0,96,0.00,,---,0.00,VWS V14.00,2018-02-21 09:53:00,
2018-02-21 04:58:00,54.6,53.5,30.23,SSW,213,3.0,14.0,96,0.00,,---,0.00,VWS V14.00,2018-02-21 09:58:00,
2018-02-21 05:03:00,54.5,53.4,30.23,SSE,167,6.0,7.0,96,0.00,,---,0.00,VWS V14.00,2018-02-21 10:03:00,
2018-02-21 05:08:00,54.5,53.4,30.24,WSW,242,4.0,9.0,96,0.00,,---,0.00,VWS V14.00,2018-02-21 10:08:00,
2018-02-21 05:13:00,54.5,53.4,30.24,SW,216,4.0,10.0,96,0.00,,---,0.00,VWS V14.00,2018-02-21 10:13:00,
2018-02-21 05:18:00,54.4,53.3,30.24,SSW,213,2.0,10.0,96,0.00,,---,0.00,VWS V14.00,2018-02-21 10:18:00,
2018-02-21 05:23:00,54.3,53.2,30.24,SW,236,3.0,10.0,96,0.00,,---,0.00,VWS V14.00,2018-02-21 10:23:00,
2018-02-21 05:28:00,54.2,53.1,30.24,SW,223,2.0,10.0,96,0.00,,---,0.00,VWS V14.00,2018-02-21 10:28:00,
2018-02-21 05:33:00,54.3,53.2,30.24,SSW,211,3.0,8.0,96,0.00,,---,0.00,VWS V14.00,2018-02-21 10:33:00,
2018-02-21 05:38:00,54.4,53.3,30.23,SW,228,2.0,8.0,96,0.00,,---,0.00,VWS V14.00,2018-02-21 10:38:00,
2018-02-21 05:43:00,54.7,53.6,30.23,SW,217,3.0,11.0,96,0.00,,---,0.00,VWS V14.00,2018-02-21 10:43:00,
2018-02-21 05:48:00,54.9,54.1,30.23,WSW,244,2.0,11.0,97,0.00,,---,0.00,VWS V14.00,2018-02-21 10:48:00,
2018-02-21 05:53:00,55.1,54.3,30.23,SW,233,3.0,11.0,97,0.00,,---,0.00,VWS V14.00,2018-02-21 10:53:00,
2018-02-21 05:58:00,55.2,54.4,30.23,West,259,3.0,11.0,97,0.00,,---,0.00,VWS V14.00,2018-02-21 10:58:00,
2018-02-21 06:03:00,55.3,54.5,30.23,West,261,4.0,8.0,97,0.00,,---,0.00,VWS V14.00,2018-02-21 11:03:00,
2018-02-21 06:08:00,55.6,54.8,30.22,WSW,252,2.0,10.0,97,0.00,,---,0.00,VWS V14.00,2018-02-21 11:08:00,
2018-02-21 06:13:00,55.7,54.9,30.22,SW,234,6.0,10.0,97,0.00,,---,0.00,VWS V14.00,2018-02-21 11:13:00,
2018-02-21 06:18:00,56.0,55.2,30.22,WSW,244,5.0,12.0,97,0.00,,---,0.00,VWS V14.00,2018-02-21 11:18:00,
2018-02-21 06:23:00,56.3,55.5,30.21,WSW,238,6.0,12.0,97,0.00,,---,0.00,VWS V14.00,2018-02-21 11:23:00,
2018-02-21 06:28:00,56.5,55.7,30.21,SW,228,3.0,15.0,97,0.00,,---,0.00,VWS V14.00,2018-02-21 11:28:00,
2018-02-21 06:33:00,56.7,55.9,30.22,SW,225,3.0,13.0,97,0.00,,---,0.00,VWS V14.00,2018-02-21 11:33:00,
2018-02-21 06:38:00,56.8,56.0,30.22,West,269,6.0,13.0,97,0.00,,---,0.00,VWS V14.00,2018-02-21 11:38:00,
2018-02-21 06:43:00,56.9,56.1,30.22,West,260,3.0,13.0,97,0.00,,---,0.00,VWS V14.00,2018-02-21 11:43:00,
2018-02-21 06:48:00,56.9,56.1,30.22,SW,231,3.0,13.0,97,0.00,,---,0.00,VWS V14.00,2018-02-21 11:48:00,
2018-02-21 06:53:00,57.1,56.0,30.22,SW,230,3.0,15.0,96,0.00,,---,0.00,VWS V14.00,2018-02-21 11:53:00,
2018-02-21 06:58:00,57.2,56.1,30.22,WNW,293,7.0,15.0,96,0.00,,---,0.00,VWS V14.00,2018-02-21 11:58:00,
2018-02-21 07:03:00,57.2,56.1,30.22,WSW,250,3.0,7.0,96,0.00,,---,0.00,VWS V14.00,2018-02-21 12:03:00,
2018-02-21 07:08:00,57.3,56.2,30.22,WSW,248,5.0,12.0,96,0.00,,---,0.00,VWS V14.00,2018-02-21 12:08:00,
2018-02-21 07:13:00,57.4,56.3,30.22,SSW,213,5.0,12.0,96,0.00,,---,0.00,VWS V14.00,2018-02-21 12:13:00,
2018-02-21 07:18:00,57.5,56.4,30.23,West,267,5.0,12.0,96,0.00,,---,0.00,VWS V14.00,2018-02-21 12:18:00,
2018-02-21 07:23:00,57.6,56.5,30.22,SW,234,14.0,14.0,96,0.00,,---,0.00,VWS V14.00,2018-02-21 12:23:00,
2018-02-21 07:28:00,57.7,56.6,30.23,SW,236,3.0,14.0,96,0.00,,---,0.00,VWS V14.00,2018-02-21 12:28:00,
2018-02-21 07:33:00,57.8,56.7,30.23,West,271,4.0,9.0,96,0.00,,---,0.00,VWS V14.00,2018-02-21 12:33:00,
2018-02-21 07:38:00,57.8,56.4,30.23,WSW,245,2.0,9.0,95,0.00,,---,0.00,VWS V14.00,2018-02-21 12:38:00,
2018-02-21 07:43:00,57.9,56.5,30.23,WSW,245,3.0,9.0,95,0.00,,---,0.00,VWS V14.00,2018-02-21 12:43:00,
2018-02-21 07:48:00,57.9,56.5,30.23,WSW,246,2.0,9.0,95,0.00,,---,0.00,VWS V14.00,2018-02-21 12:48:00,
2018-02-21 07:53:00,57.9,56.5,30.22,West,263,3.0,9.0,95,0.00,,---,0.00,VWS V14.00,2018-02-21 12:53:00,
2018-02-21 07:58:00,58.0,56.6,30.22,SW,223,6.0,10.0,95,0.00,,---,0.00,VWS V14.00,2018-02-21 12:58:00,
2018-02-21 08:03:00,58.0,56.6,30.22,SW,235,8.0,14.0,95,0.00,,---,0.00,VWS V14.00,2018-02-21 13:03:00,
2018-02-21 08:08:00,58.0,56.3,30.23,WSW,254,2.0,14.0,94,0.00,,---,0.00,VWS V14.00,2018-02-21 13:08:00,
2018-02-21 08:13:00,58.1,56.4,30.23,West,261,5.0,14.0,94,0.00,,---,0.00,VWS V14.00,2018-02-21 13:13:00,
2018-02-21 08:18:00,58.1,56.4,30.23,SW,236,5.0,14.0,94,0.00,,---,0.00,VWS V14.00,2018-02-21 13:18:00,
2018-02-21 08:23:00,58.2,56.5,30.23,SSW,196,1.0,14.0,94,0.00,,---,0.00,VWS V14.00,2018-02-21 13:23:00,
2018-02-21 08:28:00,58.2,56.5,30.23,SW,225,1.0,17.0,94,0.00,,---,0.00,VWS V14.00,2018-02-21 13:28:00,
2018-02-21 08:33:00,58.2,56.5,30.22,WSW,256,3.0,8.0,94,0.00,,---,0.00,VWS V14.00,2018-02-21 13:33:00,
2018-02-21 08:38:00,58.2,56.5,30.22,WSW,240,8.0,9.0,94,0.00,,---,0.00,VWS V14.00,2018-02-21 13:38:00,
2018-02-21 08:43:00,58.3,56.6,30.22,WSW,252,2.0,14.0,94,0.00,,---,0.00,VWS V14.00,2018-02-21 13:43:00,
2018-02-21 08:48:00,58.4,56.7,30.22,WSW,250,4.0,14.0,94,0.00,,---,0.00,VWS V14.00,2018-02-21 13:48:00,
2018-02-21 08:53:00,58.4,56.7,30.22,WSW,252,5.0,14.0,94,0.00,,---,0.00,VWS V14.00,2018-02-21 13:53:00,
2018-02-21 08:58:00,58.5,56.8,30.22,West,272,3.0,14.0,94,0.00,,---,0.00,VWS V14.00,2018-02-21 13:58:00,
2018-02-21 09:03:00,58.6,56.9,30.22,SW,231,8.0,10.0,94,0.00,,---,0.00,VWS V14.00,2018-02-21 14:03:00,
2018-02-21 09:08:00,58.7,57.0,30.22,WSW,255,7.0,10.0,94,0.00,,---,0.00,VWS V14.00,2018-02-21 14:08:00,
2018-02-21 09:13:00,58.8,56.8,30.22,West,281,5.0,13.0,93,0.00,,---,0.00,VWS V14.00,2018-02-21 14:13:00,
2018-02-21 09:18:00,58.9,56.9,30.22,West,261,2.0,13.0,93,0.00,,---,0.00,VWS V14.00,2018-02-21 14:18:00,
2018-02-21 09:23:00,59.1,57.1,30.22,WSW,252,4.0,13.0,93,0.00,,---,0.00,VWS V14.00,2018-02-21 14:23:00,
2018-02-21 09:28:00,59.3,57.3,30.22,West,265,1.0,13.0,93,0.00,,---,0.00,VWS V14.00,2018-02-21 14:28:00,
2018-02-21 09:33:00,59.4,57.4,30.22,SW,232,3.0,7.0,93,0.00,,---,0.00,VWS V14.00,2018-02-21 14:33:00,
2018-02-21 09:38:00,59.5,57.2,30.22,SW,220,4.0,10.0,92,0.00,,---,0.00,VWS V14.00,2018-02-21 14:38:00,
2018-02-21 09:43:00,59.6,57.3,30.22,West,273,5.0,10.0,92,0.00,,---,0.00,VWS V14.00,2018-02-21 14:43:00,
2018-02-21 09:48:00,59.6,57.3,30.22,WSW,253,12.0,13.0,92,0.00,,---,0.00,VWS V14.00,2018-02-21 14:48:00,
2018-02-21 09:53:00,59.7,57.1,30.22,SW,219,8.0,13.0,91,0.00,,---,0.00,VWS V14.00,2018-02-21 14:53:00,
2018-02-21 09:58:00,59.8,57.2,30.21,West,271,4.0,16.0,91,0.00,,---,0.00,VWS V14.00,2018-02-21 14:58:00,
2018-02-21 10:03:00,60.0,57.4,30.21,WSW,248,5.0,9.0,91,0.00,,---,0.00,VWS V14.00,2018-02-21 15:03:00,
2018-02-21 10:08:00,60.1,57.2,30.21,SW,229,4.0,17.0,90,0.00,,---,0.00,VWS V14.00,2018-02-21 15:08:00,
2018-02-21 10:13:00,60.3,57.4,30.21,SW,232,3.0,17.0,90,0.00,,---,0.00,VWS V14.00,2018-02-21 15:13:00,
2018-02-21 10:18:00,60.4,57.5,30.21,WSW,255,3.0,17.0,90,0.00,,---,0.00,VWS V14.00,2018-02-21 15:18:00,
2018-02-21 10:23:00,60.5,57.6,30.21,West,261,3.0,17.0,90,0.00,,---,0.00,VWS V14.00,2018-02-21 15:23:00,
2018-02-21 10:28:00,60.8,57.8,30.21,WSW,256,5.0,17.0,90,0.00,,---,0.00,VWS V14.00,2018-02-21 15:28:00,
2018-02-21 10:33:00,61.2,57.6,30.21,SW,231,4.0,12.0,88,0.00,,---,0.00,VWS V14.00,2018-02-21 15:33:00,
2018-02-21 10:38:00,61.4,57.8,30.21,SSE,166,4.0,12.0,88,0.00,,---,0.00,VWS V14.00,2018-02-21 15:38:00,
2018-02-21 10:43:00,61.8,57.9,30.21,SW,226,6.0,12.0,87,0.00,,---,0.00,VWS V14.00,2018-02-21 15:43:00,
2018-02-21 10:48:00,62.1,58.2,30.21,WSW,245,4.0,12.0,87,0.00,,---,0.00,VWS V14.00,2018-02-21 15:48:00,
2018-02-21 10:53:00,62.3,58.1,30.20,WSW,240,7.0,13.0,86,0.00,,---,0.00,VWS V14.00,2018-02-21 15:53:00,
2018-02-21 10:58:00,62.4,58.2,30.20,WSW,237,4.0,13.0,86,0.00,,---,0.00,VWS V14.00,2018-02-21 15:58:00,
2018-02-21 11:03:00,62.5,57.9,30.20,SW,234,9.0,9.0,85,0.00,,---,0.00,VWS V14.00,2018-02-21 16:03:00,
2018-02-21 11:08:00,62.6,58.0,30.20,WSW,238,4.0,9.0,85,0.00,,---,0.00,VWS V14.00,2018-02-21 16:08:00,
2018-02-21 11:13:00,62.8,57.9,30.19,South,180,3.0,10.0,84,0.00,,---,0.00,VWS V14.00,2018-02-21 16:13:00,
2018-02-21 11:18:00,62.9,58.0,30.19,SW,236,9.0,15.0,84,0.00,,---,0.00,VWS V14.00,2018-02-21 16:18:00,
2018-02-21 11:23:00,62.7,57.8,30.19,SW,228,6.0,15.0,84,0.00,,---,0.00,VWS V14.00,2018-02-21 16:23:00,
2018-02-21 11:28:00,62.6,57.7,30.19,WSW,255,4.0,17.0,84,0.00,,---,0.00,VWS V14.00,2018-02-21 16:28:00,
2018-02-21 11:33:00,62.8,57.6,30.19,WSW,255,4.0,10.0,83,0.00,,---,0.00,VWS V14.00,2018-02-21 16:33:00,
2018-02-21 11:38:00,62.8,57.9,30.18,WSW,237,10.0,13.0,84,0.00,,---,0.00,VWS V14.00,2018-02-21 16:38:00,
2018-02-21 11:43:00,63.0,57.8,30.18,SE,143,7.0,13.0,83,0.00,,---,0.00,VWS V14.00,2018-02-21 16:43:00,
2018-02-21 11:48:00,63.1,57.9,30.18,WSW,243,4.0,13.0,83,0.00,,---,0.00,VWS V14.00,2018-02-21 16:48:00,
2018-02-21 11:53:00,63.3,58.1,30.18,SSW,207,4.0,13.0,83,0.00,,---,0.00,VWS V14.00,2018-02-21 16:53:00,
2018-02-21 11:58:00,63.3,57.7,30.18,SW,229,3.0,13.0,82,0.00,,---,0.00,VWS V14.00,2018-02-21 16:58:00,
2018-02-21 12:03:00,63.1,57.5,30.17,WNW,282,1.0,10.0,82,0.00,,---,0.00,VWS V14.00,2018-02-21 17:03:00,
2018-02-21 12:08:00,63.2,58.0,30.17,WNW,284,3.0,10.0,83,0.00,,---,0.00,VWS V14.00,2018-02-21 17:08:00,
2018-02-21 12:13:00,63.1,57.5,30.17,West,268,4.0,12.0,82,0.00,,---,0.00,VWS V14.00,2018-02-21 17:13:00,
2018-02-21 12:18:00,63.4,58.2,30.16,SW,220,4.0,12.0,83,0.00,,---,0.00,VWS V14.00,2018-02-21 17:18:00,
2018-02-21 12:23:00,63.8,58.2,30.16,WSW,257,1.0,12.0,82,0.00,,---,0.00,VWS V14.00,2018-02-21 17:23:00,
2018-02-21 12:28:00,64.4,58.1,30.16,WSW,244,10.0,12.0,80,0.00,,---,0.00,VWS V14.00,2018-02-21 17:28:00,
2018-02-21 12:33:00,64.7,58.0,30.15,WSW,240,6.0,9.0,79,0.00,,---,0.00,VWS V14.00,2018-02-21 17:33:00,
2018-02-21 12:38:00,65.1,58.8,30.15,SSW,213,7.0,10.0,80,0.00,,---,0.00,VWS V14.00,2018-02-21 17:38:00,
2018-02-21 12:43:00,65.5,58.5,30.15,WNW,285,6.0,15.0,78,0.00,,---,0.00,VWS V14.00,2018-02-21 17:43:00,
2018-02-21 12:48:00,66.0,59.0,30.14,WSW,254,6.0,15.0,78,0.00,,---,0.00,VWS V14.00,2018-02-21 17:48:00,
2018-02-21 12:53:00,66.1,58.7,30.14,SSW,205,5.0,15.0,77,0.00,,---,0.00,VWS V14.00,2018-02-21 17:53:00,
2018-02-21 12:58:00,66.2,58.4,30.14,West,266,1.0,15.0,76,0.00,,---,0.00,VWS V14.00,2018-02-21 17:58:00,
2018-02-21 13:03:00,66.8,59.0,30.14,WSW,248,5.0,7.0,76,0.00,,---,0.00,VWS V14.00,2018-02-21 18:03:00,
2018-02-21 13:08:00,66.9,58.7,30.14,SW,221,5.0,8.0,75,0.00,,---,0.00,VWS V14.00,2018-02-21 18:08:00,
2018-02-21 13:13:00,67.4,59.6,30.13,WNW,288,4.0,8.0,76,0.00,,---,0.00,VWS V14.00,2018-02-21 18:13:00,
2018-02-21 13:18:00,68.0,59.0,30.12,South,178,6.0,10.0,73,0.00,,---,0.00,VWS V14.00,2018-02-21 18:18:00,
2018-02-21 13:23:00,68.0,59.0,30.12,SW,236,2.0,10.0,73,0.00,,---,0.00,VWS V14.00,2018-02-21 18:23:00,
2018-02-21 13:28:00,68.7,59.7,30.12,SW,220,3.0,10.0,73,0.00,,---,0.00,VWS V14.00,2018-02-21 18:28:00,
2018-02-21 13:33:00,68.8,59.0,30.12,SW,227,3.0,11.0,71,0.00,,---,0.00,VWS V14.00,2018-02-21 18:33:00,
2018-02-21 13:38:00,68.4,58.6,30.12,WSW,238,4.0,11.0,71,0.00,,---,0.00,VWS V14.00,2018-02-21 18:38:00,
2018-02-21 13:43:00,68.4,58.6,30.11,SW,229,5.0,11.0,71,0.00,,---,0.00,VWS V14.00,2018-02-21 18:43:00,
2018-02-21 13:48:00,68.6,58.8,30.11,WSW,253,5.0,11.0,71,0.00,,---,0.00,VWS V14.00,2018-02-21 18:48:00,
2018-02-21 13:53:00,68.7,58.9,30.11,SSW,205,7.0,12.0,71,0.00,,---,0.00,VWS V14.00,2018-02-21 18:53:00,
2018-02-21 13:58:00,68.8,59.0,30.10,SSW,198,0.0,12.0,71,0.00,,---,0.00,VWS V14.00,2018-02-21 18:58:00,
2018-02-21 14:03:00,69.5,59.3,30.10,SSW,200,7.0,10.0,70,0.00,,---,0.00,VWS V14.00,2018-02-21 19:03:00,
2018-02-21 14:08:00,69.1,58.9,30.11,SW,232,8.0,11.0,70,0.00,,---,0.00,VWS V14.00,2018-02-21 19:08:00,
2018-02-21 14:13:00,68.9,59.5,30.11,SW,225,8.0,12.0,72,0.00,,---,0.00,VWS V14.00,2018-02-21 19:13:00,
2018-02-21 14:18:00,68.5,58.7,30.11,SW,217,8.0,14.0,71,0.00,,---,0.00,VWS V14.00,2018-02-21 19:18:00,
2018-02-21 14:23:00,68.6,59.2,30.11,SSE,161,0.0,14.0,72,0.00,,---,0.00,VWS V14.00,2018-02-21 19:23:00,
2018-02-21 14:28:00,68.4,58.6,30.12,West,263,6.0,14.0,71,0.00,,---,0.00,VWS V14.00,2018-02-21 19:28:00,
2018-02-21 14:33:00,68.5,59.1,30.11,WSW,248,3.0,6.0,72,0.00,,---,0.00,VWS V14.00,2018-02-21 19:33:00,
2018-02-21 14:38:00,68.7,58.5,30.12,South,188,3.0,7.0,70,0.00,,---,0.00,VWS V14.00,2018-02-21 19:38:00,
2018-02-21 14:43:00,68.7,58.5,30.12,SW,219,11.0,12.0,70,0.00,,---,0.00,VWS V14.00,2018-02-21 19:43:00,
2018-02-21 14:48:00,68.3,58.5,30.12,SW,231,9.0,13.0,71,0.00,,---,0.00,VWS V14.00,2018-02-21 19:48:00,
2018-02-21 14:53:00,68.1,58.7,30.11,SW,227,2.0,13.0,72,0.00,,---,0.00,VWS V14.00,2018-02-21 19:53:00,
2018-02-21 14:58:00,68.6,58.8,30.11,SW,225,5.0,13.0,71,0.00,,---,0.00,VWS V14.00,2018-02-21 19:58:00,
2018-02-21 15:03:00,68.9,58.7,30.11,SW,217,8.0,10.0,70,0.00,,---,0.00,VWS V14.00,2018-02-21 20:03:00,
2018-02-21 15:08:00,68.9,58.3,30.11,WNW,290,3.0,11.0,69,0.00,,---,0.00,VWS V14.00,2018-02-21 20:08:00,
2018-02-21 15:13:00,69.2,58.6,30.11,SW,230,4.0,11.0,69,0.00,,---,0.00,VWS V14.00,2018-02-21 20:13:00,
2018-02-21 15:18:00,69.5,58.5,30.11,SSW,202,3.0,11.0,68,0.00,,---,0.00,VWS V14.00,2018-02-21 20:18:00,
2018-02-21 15:23:00,69.8,58.8,30.11,SSW,198,0.0,11.0,68,0.00,,---,0.00,VWS V14.00,2018-02-21 20:23:00,
2018-02-21 15:28:00,69.9,58.9,30.11,West,265,3.0,11.0,68,0.00,,---,0.00,VWS V14.00,2018-02-21 20:28:00,
2018-02-21 15:33:00,69.9,58.5,30.11,SW,234,4.0,8.0,67,0.00,,---,0.00,VWS V14.00,2018-02-21 20:33:00,
2018-02-21 15:38:00,69.9,58.9,30.11,SW,232,3.0,8.0,68,0.00,,---,0.00,VWS V14.00,2018-02-21 20:38:00,
2018-02-21 15:43:00,69.6,58.6,30.11,SSE,162,3.0,10.0,68,0.00,,---,0.00,VWS V14.00,2018-02-21 20:43:00,
2018-02-21 15:48:00,69.2,58.2,30.12,West,273,9.0,15.0,68,0.00,,---,0.00,VWS V14.00,2018-02-21 20:48:00,
2018-02-21 15:53:00,68.8,58.2,30.11,WSW,256,4.0,15.0,69,0.00,,---,0.00,VWS V14.00,2018-02-21 20:53:00,
2018-02-21 15:58:00,68.5,57.9,30.12,SW,229,4.0,15.0,69,0.00,,---,0.00,VWS V14.00,2018-02-21 20:58:00,
2018-02-21 16:03:00,68.3,58.2,30.12,West,279,0.0,9.0,70,0.00,,---,0.00,VWS V14.00,2018-02-21 21:03:00,
2018-02-21 16:08:00,68.3,58.2,30.12,SSW,208,10.0,11.0,70,0.00,,---,0.00,VWS V14.00,2018-02-21 21:08:00,
2018-02-21 16:13:00,68.0,57.9,30.11,SW,229,4.0,11.0,70,0.00,,---,0.00,VWS V14.00,2018-02-21 21:13:00,
2018-02-21 16:18:00,67.7,58.0,30.12,SW,231,4.0,11.0,71,0.00,,---,0.00,VWS V14.00,2018-02-21 21:18:00,
2018-02-21 16:23:00,67.5,57.8,30.12,SW,227,5.0,11.0,71,0.00,,---,0.00,VWS V14.00,2018-02-21 21:23:00,
2018-02-21 16:28:00,67.1,57.8,30.12,WSW,240,6.0,11.0,72,0.00,,---,0.00,VWS V14.00,2018-02-21 21:28:00,
2018-02-21 16:33:00,66.8,57.5,30.12,SSW,200,2.0,5.0,72,0.00,,---,0.00,VWS V14.00,2018-02-21 21:33:00,
2018-02-21 16:38:00,66.6,57.7,30.12,SW,225,7.0,9.0,73,0.00,,---,0.00,VWS V14.00,2018-02-21 21:38:00,
2018-02-21 16:43:00,66.4,57.5,30.12,SW,229,4.0,9.0,73,0.00,,---,0.00,VWS V14.00,2018-02-21 21:43:00,
2018-02-21 16:48:00,66.2,57.7,30.13,SSW,207,3.0,9.0,74,0.00,,---,0.00,VWS V14.00,2018-02-21 21:48:00,
2018-02-21 16:53:00,65.9,57.4,30.12,SW,219,1.0,9.0,74,0.00,,---,0.00,VWS V14.00,2018-02-21 21:53:00,
2018-02-21 16:58:00,65.7,57.2,30.13,WSW,250,6.0,9.0,74,0.00,,---,0.00,VWS V14.00,2018-02-21 21:58:00,
2018-02-21 17:03:00,65.5,57.4,30.13,WSW,238,2.0,7.0,75,0.00,,---,0.00,VWS V14.00,2018-02-21 22:03:00,
2018-02-21 17:08:00,65.2,57.5,30.13,WSW,250,5.0,8.0,76,0.00,,---,0.00,VWS V14.00,2018-02-21 22:08:00,
2018-02-21 17:13:00,64.9,57.2,30.13,SSW,195,3.0,12.0,76,0.00,,---,0.00,VWS V14.00,2018-02-21 22:13:00,
2018-02-21 17:18:00,64.5,57.1,30.13,SSW,196,2.0,12.0,77,0.00,,---,0.00,VWS V14.00,2018-02-21 22:18:00,
2018-02-21 17:23:00,64.3,57.3,30.13,SW,234,2.0,12.0,78,0.00,,---,0.00,VWS V14.00,2018-02-21 22:23:00,
2018-02-21 17:28:00,64.0,57.0,30.13,South,179,1.0,12.0,78,0.00,,---,0.00,VWS V14.00,2018-02-21 22:28:00,
2018-02-21 17:33:00,63.8,57.2,30.13,SW,216,4.0,5.0,79,0.00,,---,0.00,VWS V14.00,2018-02-21 22:33:00,
2018-02-21 17:38:00,63.5,56.9,30.13,SW,215,3.0,6.0,79,0.00,,---,0.00,VWS V14.00,2018-02-21 22:38:00,
2018-02-21 17:43:00,63.3,57.0,30.13,SW,234,4.0,10.0,80,0.00,,---,0.00,VWS V14.00,2018-02-21 22:43:00,
2018-02-21 17:48:00,63.1,57.2,30.14,SW,227,1.0,10.0,81,0.00,,---,0.00,VWS V14.00,2018-02-21 22:48:00,
2018-02-21 17:53:00,62.9,57.0,30.14,SSW,208,2.0,10.0,81,0.00,,---,0.00,VWS V14.00,2018-02-21 22:53:00,
2018-02-21 17:58:00,62.7,56.8,30.15,SW,217,2.0,10.0,81,0.00,,---,0.00,VWS V14.00,2018-02-21 22:58:00,
2018-02-21 18:03:00,62.7,57.1,30.15,South,188,3.0,7.0,82,0.00,,---,0.00,VWS V14.00,2018-02-21 23:03:00,
2018-02-21 18:08:00,62.6,57.0,30.15,West,259,1.0,9.0,82,0.00,,---,0.00,VWS V14.00,2018-02-21 23:08:00,
2018-02-21 18:13:00,62.5,57.3,30.16,SW,232,3.0,9.0,83,0.00,,---,0.00,VWS V14.00,2018-02-21 23:13:00,
2018-02-21 18:18:00,62.3,57.1,30.16,SW,225,3.0,9.0,83,0.00,,---,0.00,VWS V14.00,2018-02-21 23:18:00,
2018-02-21 18:23:00,62.3,57.1,30.16,SW,234,2.0,9.0,83,0.00,,---,0.00,VWS V14.00,2018-02-21 23:23:00,
2018-02-21 18:28:00,62.2,57.0,30.17,WSW,254,0.0,9.0,83,0.00,,---,0.00,VWS V14.00,2018-02-21 23:28:00,
2018-02-21 18:33:00,62.2,57.3,30.17,WSW,250,1.0,6.0,84,0.00,,---,0.00,VWS V14.00,2018-02-21 23:33:00,
2018-02-21 18:38:00,62.2,57.3,30.17,SW,231,4.0,7.0,84,0.00,,---,0.00,VWS V14.00,2018-02-21 23:38:00,
2018-02-21 18:43:00,62.2,57.3,30.17,SW,232,2.0,8.0,84,0.00,,---,0.00,VWS V14.00,2018-02-21 23:43:00,
2018-02-21 18:48:00,62.2,57.6,30.18,WSW,256,4.0,8.0,85,0.00,,---,0.00,VWS V14.00,2018-02-21 23:48:00,
2018-02-21 18:53:00,62.2,57.6,30.18,West,271,1.0,8.0,85,0.00,,---,0.00,VWS V14.00,2018-02-21 23:53:00,
2018-02-21 18:58:00,62.2,57.6,30.19,WNW,286,2.0,8.0,85,0.00,,---,0.00,VWS V14.00,2018-02-21 23:58:00,
2018-02-21 19:03:00,62.1,57.5,30.20,West,276,2.0,5.0,85,0.00,,---,0.00,VWS V14.00,2018-02-22 00:03:00,
2018-02-21 19:08:00,62.2,57.6,30.20,West,259,2.0,8.0,85,0.00,,---,0.00,VWS V14.00,2018-02-22 00:08:00,
2018-02-21 19:13:00,62.3,57.7,30.20,West,275,2.0,8.0,85,0.00,,---,0.00,VWS V14.00,2018-02-22 00:13:00,
2018-02-21 19:18:00,62.4,58.2,30.20,SW,226,2.0,11.0,86,0.00,,---,0.00,VWS V14.00,2018-02-22 00:18:00,
2018-02-21 19:23:00,62.7,58.1,30.20,NW,305,6.0,11.0,85,0.00,,---,0.00,VWS V14.00,2018-02-22 00:23:00,
2018-02-21 19:28:00,63.1,58.5,30.21,WSW,244,6.0,15.0,85,0.00,,---,0.00,VWS V14.00,2018-02-22 00:28:00,
2018-02-21 19:33:00,63.4,58.5,30.21,WNW,288,3.0,15.0,84,0.00,,---,0.00,VWS V14.00,2018-02-22 00:33:00,
2018-02-21 19:38:00,63.6,58.3,30.22,NW,315,6.0,15.0,83,0.00,,---,0.00,VWS V14.00,2018-02-22 00:38:00,
2018-02-21 19:43:00,63.7,58.5,30.22,West,279,7.0,15.0,83,0.00,,---,0.00,VWS V14.00,2018-02-22 00:43:00,
2018-02-21 19:48:00,63.7,58.1,30.22,WNW,300,5.0,15.0,82,0.00,,---,0.00,VWS V14.00,2018-02-22 00:48:00,
2018-02-21 19:53:00,63.7,58.1,30.23,WNW,290,6.0,15.0,82,0.00,,---,0.00,VWS V14.00,2018-02-22 00:53:00,
2018-02-21 19:58:00,63.6,57.7,30.23,WNW,292,4.0,15.0,81,0.00,,---,0.00,VWS V14.00,2018-02-22 00:58:00,
2018-02-21 20:03:00,63.6,57.7,30.24,West,269,5.0,7.0,81,0.00,,---,0.00,VWS V14.00,2018-02-22 01:03:00,
2018-02-21 20:08:00,63.5,57.6,30.24,West,264,3.0,11.0,81,0.00,,---,0.00,VWS V14.00,2018-02-22 01:08:00,
2018-02-21 20:13:00,63.5,56.5,30.24,WSW,254,8.0,12.0,78,0.00,,---,0.00,VWS V14.00,2018-02-22 01:13:00,
2018-02-21 20:18:00,63.7,55.6,30.25,WNW,294,4.0,12.0,75,0.00,,---,0.00,VWS V14.00,2018-02-22 01:18:00,
2018-02-21 20:23:00,63.9,55.1,30.25,West,271,4.0,12.0,73,0.00,,---,0.00,VWS V14.00,2018-02-22 01:23:00,
2018-02-21 20:28:00,64.1,54.1,30.25,WSW,252,10.0,15.0,70,0.00,,---,0.00,VWS V14.00,2018-02-22 01:28:00,
2018-02-21 20:33:00,64.3,53.5,30.25,WNW,284,4.0,13.0,68,0.00,,---,0.00,VWS V14.00,2018-02-22 01:33:00,